Shawboro, North Carolina
Current Conditions -  °F | °C
As of 8:35 PM on Monday 24 Nov 2014 (Local Time) from KONX Reporting Station
Overcast Overcast  
Wind Chill: 69°   Ceiling: 600
Heat Index: 69°   Visibility: 7mi
Dew Point: 67°   Wind: 6mph
Humidity: 91%   Direction: 210°SSW
Pressure: 29.88"   Gusts: NA
Location:  36.41°N, 76.09°W
Report Text: KONX 250135Z AUTO 21005KT 7SM OVC006 21/19 A2988 RMK AO2 T02070192
Loading
Personal Weather Stations






























Interactive Weather Map New forecast layout! Learn more

10-Day Weather Forecast

Advertisements
Track Severe Weather on mobile